createdAt,value
2018-08-24T00:00:02.722Z,15.55
2018-08-24T00:02:31.411Z,15.44
2018-08-24T00:05:00.143Z,15.36
2018-08-24T00:07:28.938Z,15.30
2018-08-24T00:09:57.539Z,15.27
2018-08-24T00:12:26.179Z,15.23
2018-08-24T00:14:55.721Z,15.19
2018-08-24T00:17:31.099Z,15.14
2018-08-24T00:20:00.693Z,15.14
2018-08-24T00:22:29.393Z,15.15
2018-08-24T00:24:58.040Z,15.13
2018-08-24T00:27:26.697Z,15.11
2018-08-24T00:29:55.392Z,15.11
2018-08-24T00:32:24.068Z,15.07
2018-08-24T00:34:52.930Z,15.10
2018-08-24T00:37:21.606Z,15.09
2018-08-24T00:39:50.271Z,15.10
2018-08-24T00:42:18.951Z,15.10
2018-08-24T00:44:47.599Z,15.08
2018-08-24T00:47:16.276Z,15.01
2018-08-24T00:49:44.935Z,15.03
2018-08-24T00:52:13.608Z,15.03
2018-08-24T00:54:42.296Z,14.99
2018-08-24T00:57:10.973Z,15.00
2018-08-24T00:59:39.662Z,14.99
2018-08-24T01:02:08.371Z,14.97
2018-08-24T01:04:37.390Z,14.96
2018-08-24T01:07:11.066Z,14.94
2018-08-24T01:09:40.529Z,14.93
2018-08-24T01:12:10.283Z,14.92
2018-08-24T01:14:40.104Z,14.89
2018-08-24T01:17:13.915Z,14.93
2018-08-24T01:19:43.173Z,14.93
2018-08-24T01:22:11.872Z,14.97
2018-08-24T01:24:40.591Z,15.01
2018-08-24T01:27:09.736Z,14.98
2018-08-24T01:29:39.603Z,15.01
2018-08-24T01:32:08.457Z,15.01
2018-08-24T01:34:37.755Z,14.99
2018-08-24T01:37:06.562Z,15.00
2018-08-24T01:39:35.245Z,15.00
2018-08-24T01:42:03.972Z,14.96
2018-08-24T01:44:32.644Z,14.84
2018-08-24T01:47:01.291Z,14.76
2018-08-24T01:49:29.952Z,14.63
2018-08-24T01:51:58.617Z,14.54
2018-08-24T01:54:27.253Z,14.45
2018-08-24T01:56:55.952Z,14.38
2018-08-24T01:59:24.678Z,14.34
2018-08-24T02:01:53.310Z,14.32
2018-08-24T02:04:21.980Z,14.30
2018-08-24T02:06:50.629Z,14.28
2018-08-24T02:09:22.379Z,14.28
2018-08-24T02:11:51.429Z,14.27
2018-08-24T02:14:25.391Z,14.28
2018-08-24T02:16:54.173Z,14.31
2018-08-24T02:19:27.884Z,14.33
2018-08-24T02:22:01.826Z,14.34
2018-08-24T02:24:30.503Z,14.32
2018-08-24T02:26:59.211Z,14.37
2018-08-24T02:29:27.884Z,14.36
2018-08-24T02:31:57.762Z,14.35
2018-08-24T02:34:26.443Z,14.38
2018-08-24T02:36:55.103Z,14.37
2018-08-24T02:39:23.766Z,14.36
2018-08-24T02:41:52.447Z,14.35
2018-08-24T02:44:21.152Z,14.35
2018-08-24T02:46:49.829Z,14.34
2018-08-24T02:49:18.460Z,14.37
2018-08-24T02:51:47.111Z,14.36
2018-08-24T02:54:15.801Z,14.36
2018-08-24T02:56:44.480Z,14.35
2018-08-24T02:59:13.209Z,14.34
2018-08-24T03:01:41.913Z,14.34
2018-08-24T03:04:10.580Z,14.37
2018-08-24T03:06:40.102Z,14.39
2018-08-24T03:09:10.526Z,14.40
2018-08-24T03:11:39.287Z,14.42
2018-08-24T03:14:08.209Z,14.40
2018-08-24T03:16:36.929Z,14.42
2018-08-24T03:19:05.574Z,14.44
2018-08-24T03:21:34.273Z,14.44
2018-08-24T03:24:03.006Z,14.45
2018-08-24T03:26:31.671Z,14.45
2018-08-24T03:29:00.350Z,14.46
2018-08-24T03:31:29.058Z,14.48
2018-08-24T03:33:57.736Z,14.49
2018-08-24T03:36:26.396Z,14.48
2018-08-24T03:38:55.064Z,14.49
2018-08-24T03:41:23.751Z,14.44
2018-08-24T03:43:52.478Z,14.45
2018-08-24T03:46:21.179Z,14.47
2018-08-24T03:48:49.847Z,14.48
2018-08-24T03:51:18.529Z,14.45
2018-08-24T03:53:47.210Z,14.46
2018-08-24T03:56:15.922Z,14.46
2018-08-24T03:58:44.605Z,14.47
2018-08-24T04:01:13.297Z,14.47
2018-08-24T04:03:41.960Z,14.45
2018-08-24T04:06:10.621Z,14.44
2018-08-24T04:08:39.269Z,14.44
2018-08-24T04:11:07.951Z,14.42
2018-08-24T04:13:36.599Z,14.42
2018-08-24T04:16:05.270Z,14.42
2018-08-24T04:18:33.959Z,14.42
2018-08-24T04:21:02.616Z,14.42
2018-08-24T04:23:31.297Z,14.42
2018-08-24T04:25:59.951Z,14.42
2018-08-24T04:28:28.625Z,14.42
2018-08-24T04:30:57.278Z,14.38
2018-08-24T04:33:25.935Z,14.39
2018-08-24T04:35:54.597Z,14.39
2018-08-24T04:38:23.261Z,14.38
2018-08-24T04:40:52.063Z,14.37
2018-08-24T04:43:20.705Z,14.35
2018-08-24T04:45:49.415Z,14.38
2018-08-24T04:48:18.079Z,14.38
2018-08-24T04:50:46.762Z,14.39
2018-08-24T04:53:15.444Z,14.38
2018-08-24T04:55:44.184Z,14.40
2018-08-24T04:58:12.860Z,14.41
2018-08-24T05:00:41.599Z,14.41
2018-08-24T05:03:10.266Z,14.41
2018-08-24T05:05:39.074Z,14.40
2018-08-24T05:08:07.760Z,14.40
2018-08-24T05:10:36.441Z,14.40
2018-08-24T05:13:05.117Z,14.37
2018-08-24T05:15:34.203Z,14.38
2018-08-24T05:18:02.908Z,14.39
2018-08-24T05:20:31.585Z,14.41
2018-08-24T05:23:00.273Z,14.42
2018-08-24T05:25:28.941Z,14.43
2018-08-24T05:27:57.660Z,14.43
2018-08-24T05:30:26.280Z,14.42
2018-08-24T05:32:55.004Z,14.34
2018-08-24T05:35:23.725Z,14.21
2018-08-24T05:37:52.385Z,14.12
2018-08-24T05:40:21.093Z,14.05
2018-08-24T05:42:49.784Z,13.92
2018-08-24T05:45:18.464Z,13.87
2018-08-24T05:47:47.101Z,13.79
2018-08-24T05:50:15.768Z,13.74
2018-08-24T05:52:44.457Z,13.73
2018-08-24T05:55:13.321Z,13.70
2018-08-24T05:57:42.069Z,13.76
2018-08-24T06:00:10.839Z,13.78
2018-08-24T06:02:39.617Z,13.79
2018-08-24T06:05:08.343Z,13.81
2018-08-24T06:07:36.986Z,13.83
2018-08-24T06:10:05.700Z,13.85
2018-08-24T06:12:34.409Z,13.87
2018-08-24T06:15:03.135Z,13.92
2018-08-24T06:17:37.036Z,13.97
2018-08-24T06:20:06.242Z,14.01
2018-08-24T06:22:34.921Z,14.04
2018-08-24T06:25:03.615Z,14.04
2018-08-24T06:27:32.298Z,13.98
2018-08-24T06:30:01.008Z,13.92
2018-08-24T06:32:29.672Z,13.84
2018-08-24T06:34:58.349Z,13.79
2018-08-24T06:37:27.073Z,13.77
2018-08-24T06:39:55.747Z,13.76
2018-08-24T06:42:24.470Z,13.75
2018-08-24T06:44:53.213Z,13.78
2018-08-24T06:47:21.976Z,13.80
2018-08-24T06:49:50.676Z,13.82
2018-08-24T06:52:19.375Z,13.84
2018-08-24T06:54:48.044Z,13.88
2018-08-24T06:57:16.859Z,13.94
2018-08-24T06:59:45.594Z,14.01
2018-08-24T07:02:14.267Z,14.06
2018-08-24T07:04:42.961Z,14.09
2018-08-24T07:07:11.731Z,14.12
2018-08-24T07:09:40.583Z,14.13
2018-08-24T07:12:11.149Z,14.12
2018-08-24T07:14:40.200Z,14.15
2018-08-24T07:17:08.884Z,14.23
2018-08-24T07:19:37.605Z,14.30
2018-08-24T07:22:06.386Z,14.36
2018-08-24T07:24:35.064Z,14.40
2018-08-24T07:27:03.807Z,14.44
2018-08-24T07:29:32.476Z,14.47
2018-08-24T07:32:01.169Z,14.54
2018-08-24T07:34:29.868Z,14.59
2018-08-24T07:36:58.584Z,14.62
2018-08-24T07:39:27.299Z,14.69
2018-08-24T07:41:55.990Z,14.71
2018-08-24T07:44:24.644Z,14.75
2018-08-24T07:46:53.358Z,14.79
2018-08-24T07:49:22.116Z,14.81
2018-08-24T07:51:50.791Z,14.82
2018-08-24T07:54:19.491Z,14.81
2018-08-24T07:56:48.149Z,14.86
2018-08-24T07:59:16.819Z,14.89
2018-08-24T08:01:45.720Z,14.96
2018-08-24T08:04:14.528Z,14.96
2018-08-24T08:06:43.215Z,15.01
2018-08-24T08:09:11.924Z,15.05
2018-08-24T08:11:41.264Z,15.09
2018-08-24T08:14:10.329Z,15.10
2018-08-24T08:16:39.035Z,15.08
2018-08-24T08:19:07.900Z,15.11
2018-08-24T08:21:36.694Z,15.13
2018-08-24T08:24:05.723Z,15.13
2018-08-24T08:26:34.715Z,15.14
2018-08-24T08:29:03.619Z,15.14
2018-08-24T08:31:32.550Z,15.14
2018-08-24T08:34:01.442Z,15.13
2018-08-24T08:36:30.310Z,15.08
2018-08-24T08:38:59.194Z,14.97
2018-08-24T08:41:27.948Z,14.93
2018-08-24T08:43:56.724Z,14.83
2018-08-24T08:46:25.617Z,14.74
2018-08-24T08:48:54.502Z,14.64
2018-08-24T08:51:23.258Z,14.56
2018-08-24T08:53:52.937Z,14.60
2018-08-24T08:56:21.853Z,14.66
2018-08-24T08:58:50.572Z,14.75
2018-08-24T09:01:19.261Z,14.85
2018-08-24T09:03:47.926Z,14.95
2018-08-24T09:06:16.604Z,15.02
2018-08-24T09:08:45.389Z,15.08
2018-08-24T09:11:14.081Z,15.17
2018-08-24T09:13:42.735Z,15.25
2018-08-24T09:16:11.387Z,15.31
2018-08-24T09:20:48.479Z,15.39
2018-08-24T09:23:22.210Z,15.56
2018-08-24T09:25:56.009Z,15.60
2018-08-24T09:28:29.720Z,15.67
2018-08-24T09:31:03.333Z,15.72
2018-08-24T09:33:31.984Z,15.73
2018-08-24T09:36:04.755Z,15.74
2018-08-24T09:38:33.422Z,15.77
2018-08-24T09:41:02.112Z,15.83
2018-08-24T09:43:35.904Z,15.91
2018-08-24T09:46:04.678Z,15.92
2018-08-24T09:48:38.576Z,15.93
2018-08-24T09:51:12.355Z,15.89
2018-08-24T09:53:46.122Z,15.84
2018-08-24T09:56:14.793Z,15.82
2018-08-24T09:58:43.490Z,15.89
2018-08-24T10:01:17.276Z,15.99
2018-08-24T10:03:51.031Z,16.12
2018-08-24T10:06:24.836Z,16.19
2018-08-24T10:08:53.512Z,16.20
2018-08-24T10:11:22.199Z,16.28
2018-08-24T10:13:50.889Z,16.37
2018-08-24T10:16:19.616Z,16.42
2018-08-24T10:18:48.284Z,16.40
2018-08-24T10:21:16.941Z,16.38
2018-08-24T10:23:45.693Z,16.22
2018-08-24T10:26:14.392Z,16.01
2018-08-24T10:28:43.075Z,15.88
2018-08-24T10:31:11.764Z,15.74
2018-08-24T10:33:40.489Z,15.68
2018-08-24T10:36:09.228Z,15.68
2018-08-24T10:38:37.985Z,15.75
2018-08-24T10:41:06.700Z,15.98
2018-08-24T10:43:35.399Z,16.13
2018-08-24T10:46:04.119Z,16.22
2018-08-24T10:48:32.764Z,16.26
2018-08-24T10:51:01.458Z,16.32
2018-08-24T10:53:30.132Z,16.39
2018-08-24T10:55:58.865Z,16.52
2018-08-24T10:58:27.540Z,16.68
2018-08-24T11:00:56.219Z,16.93
2018-08-24T11:03:24.940Z,17.10
2018-08-24T11:05:53.591Z,17.16
2018-08-24T11:08:22.282Z,17.10
2018-08-24T11:10:50.962Z,17.04
2018-08-24T11:13:19.683Z,16.94
2018-08-24T11:15:50.388Z,16.73
2018-08-24T11:18:19.247Z,16.47
2018-08-24T11:20:48.012Z,16.31
2018-08-24T11:23:16.723Z,16.33
2018-08-24T11:25:45.416Z,16.43
2018-08-24T11:28:14.094Z,16.64
2018-08-24T11:30:42.789Z,16.90
2018-08-24T11:33:11.544Z,17.02
2018-08-24T11:35:40.219Z,17.19
2018-08-24T11:38:08.981Z,17.26
2018-08-24T11:40:37.660Z,17.37
2018-08-24T11:43:06.341Z,17.40
2018-08-24T11:45:35.104Z,17.55
2018-08-24T11:48:03.865Z,17.68
2018-08-24T11:50:32.569Z,17.73
2018-08-24T11:53:01.252Z,17.82
2018-08-24T11:55:29.960Z,17.92
2018-08-24T11:57:58.608Z,17.98
2018-08-24T12:00:33.152Z,17.95
2018-08-24T12:03:02.576Z,18.04
2018-08-24T12:05:31.677Z,18.19
2018-08-24T12:08:00.451Z,18.20
2018-08-24T12:10:29.030Z,18.14
2018-08-24T12:12:58.181Z,18.08
2018-08-24T12:15:26.851Z,18.04
2018-08-24T12:17:55.896Z,18.09
2018-08-24T12:20:24.632Z,18.07
2018-08-24T12:22:53.380Z,18.06
2018-08-24T12:25:22.072Z,18.01
2018-08-24T12:27:50.735Z,17.93
2018-08-24T12:30:19.435Z,17.76
2018-08-24T12:32:48.140Z,17.68
2018-08-24T12:35:16.855Z,17.76
2018-08-24T12:37:46.827Z,17.77
2018-08-24T12:40:16.238Z,17.83
2018-08-24T12:42:45.079Z,17.97
2018-08-24T12:45:13.809Z,18.01
2018-08-24T12:47:42.532Z,18.01
2018-08-24T12:50:11.444Z,17.98
2018-08-24T12:52:40.135Z,17.89
2018-08-24T12:55:08.920Z,17.84
2018-08-24T12:57:37.611Z,17.72
2018-08-24T13:00:06.394Z,17.47
2018-08-24T13:02:35.060Z,17.08
2018-08-24T13:05:03.819Z,16.83
2018-08-24T13:07:32.512Z,16.54
2018-08-24T13:10:01.180Z,16.29
2018-08-24T13:12:29.877Z,16.20
2018-08-24T13:14:58.571Z,16.21
2018-08-24T13:17:27.269Z,16.21
2018-08-24T13:19:55.932Z,16.20
2018-08-24T13:22:24.636Z,16.20
2018-08-24T13:24:53.408Z,16.20
2018-08-24T13:27:22.201Z,16.19
2018-08-24T13:29:50.843Z,16.21
2018-08-24T13:32:19.600Z,16.20
2018-08-24T13:34:48.308Z,16.24
2018-08-24T13:37:17.029Z,16.27
2018-08-24T13:39:45.723Z,16.30
2018-08-24T13:42:14.437Z,16.34
2018-08-24T13:44:43.107Z,16.38
2018-08-24T13:47:11.865Z,16.40
2018-08-24T13:49:40.541Z,16.45
2018-08-24T13:52:09.260Z,16.46
2018-08-24T13:54:37.953Z,16.53
2018-08-24T13:57:06.684Z,16.59
2018-08-24T13:59:35.477Z,16.68
2018-08-24T14:02:04.194Z,16.75
2018-08-24T14:04:32.879Z,16.79
2018-08-24T14:07:01.600Z,16.78
2018-08-24T14:09:30.336Z,16.74
2018-08-24T14:11:59.072Z,16.63
2018-08-24T14:14:27.773Z,16.57
2018-08-24T14:16:56.509Z,16.54
2018-08-24T14:19:25.232Z,16.51
2018-08-24T14:21:53.961Z,16.47
2018-08-24T14:24:22.732Z,16.47
2018-08-24T14:26:51.418Z,16.49
2018-08-24T14:29:20.165Z,16.50
2018-08-24T14:31:49.039Z,16.48
2018-08-24T14:34:17.657Z,16.48
2018-08-24T14:36:46.407Z,16.43
2018-08-24T14:39:15.113Z,16.35
2018-08-24T14:41:43.787Z,16.28
2018-08-24T14:44:12.692Z,16.28
2018-08-24T14:46:41.378Z,16.29
2018-08-24T14:49:10.086Z,16.34
2018-08-24T14:51:38.856Z,16.33
2018-08-24T14:54:07.640Z,16.34
2018-08-24T14:56:36.324Z,16.35
2018-08-24T14:59:05.060Z,16.33
2018-08-24T15:01:33.811Z,16.35
2018-08-24T15:04:02.519Z,16.35
2018-08-24T15:06:31.249Z,16.34
2018-08-24T15:08:59.970Z,16.28
2018-08-24T15:11:28.680Z,16.09
2018-08-24T15:13:57.355Z,15.93
2018-08-24T15:16:26.074Z,15.77
2018-08-24T15:18:54.788Z,15.62
2018-08-24T15:21:23.475Z,15.48
2018-08-24T15:23:52.180Z,15.41
2018-08-24T15:26:21.087Z,15.35
2018-08-24T15:28:49.872Z,15.28
2018-08-24T15:31:18.587Z,15.21
2018-08-24T15:33:47.323Z,15.11
2018-08-24T15:36:16.004Z,15.00
2018-08-24T15:38:44.694Z,14.88
2018-08-24T15:41:13.388Z,14.75
2018-08-24T15:43:42.069Z,14.62
2018-08-24T15:46:10.815Z,14.48
2018-08-24T15:48:39.532Z,14.36
2018-08-24T15:51:08.217Z,14.25
2018-08-24T15:53:36.922Z,14.14
2018-08-24T15:56:05.698Z,14.10
2018-08-24T15:58:34.420Z,14.06
2018-08-24T16:01:03.111Z,14.04
2018-08-24T16:03:31.789Z,14.08
2018-08-24T16:06:00.487Z,14.05
2018-08-24T16:08:29.235Z,13.97
2018-08-24T16:10:57.912Z,13.86
2018-08-24T16:13:26.612Z,13.78
2018-08-24T16:15:55.367Z,13.71
2018-08-24T16:18:24.876Z,13.65
2018-08-24T16:20:54.404Z,13.60
2018-08-24T16:23:23.131Z,13.53
2018-08-24T16:25:51.880Z,13.49
2018-08-24T16:28:20.672Z,13.41
2018-08-24T16:30:49.352Z,13.34
2018-08-24T16:33:18.645Z,13.28
2018-08-24T16:35:47.395Z,13.27
2018-08-24T16:38:16.567Z,13.27
2018-08-24T16:40:45.220Z,13.22
2018-08-24T16:43:14.473Z,13.23
2018-08-24T16:45:43.183Z,13.21
2018-08-24T16:48:12.885Z,13.17
2018-08-24T16:50:41.608Z,13.13
2018-08-24T16:53:10.268Z,13.13
2018-08-24T16:55:38.968Z,13.13
2018-08-24T16:58:07.780Z,13.17
2018-08-24T17:00:36.429Z,13.18
2018-08-24T17:03:05.100Z,13.19
2018-08-24T17:05:33.783Z,13.22
2018-08-24T17:08:02.439Z,13.24
2018-08-24T17:10:31.101Z,13.27
2018-08-24T17:12:59.889Z,13.29
2018-08-24T17:15:28.518Z,13.32
2018-08-24T17:17:57.249Z,13.35
2018-08-24T17:20:25.936Z,13.37
2018-08-24T17:22:54.622Z,13.40
2018-08-24T17:25:23.336Z,13.42
2018-08-24T17:27:52.011Z,13.47
2018-08-24T17:30:20.715Z,13.52
2018-08-24T17:32:49.463Z,13.58
2018-08-24T17:35:18.119Z,13.61
2018-08-24T17:37:46.794Z,13.64
2018-08-24T17:40:15.476Z,13.66
2018-08-24T17:42:44.168Z,13.66
2018-08-24T17:45:12.860Z,13.68
2018-08-24T17:47:41.620Z,13.73
2018-08-24T17:50:10.309Z,13.77
2018-08-24T17:52:38.989Z,13.82
2018-08-24T17:55:07.873Z,13.86
2018-08-24T17:57:36.584Z,13.90
2018-08-24T18:00:05.407Z,13.90
2018-08-24T18:02:34.071Z,13.90
2018-08-24T18:05:02.747Z,13.92
2018-08-24T18:07:31.440Z,13.94
2018-08-24T18:10:00.121Z,13.91
2018-08-24T18:12:28.816Z,13.95
2018-08-24T18:14:57.596Z,13.98
2018-08-24T18:17:26.210Z,13.99
2018-08-24T18:19:54.916Z,14.01
2018-08-24T18:22:23.603Z,14.05
2018-08-24T18:24:52.288Z,14.08
2018-08-24T18:27:21.008Z,14.13
2018-08-24T18:29:49.791Z,14.16
2018-08-24T18:32:18.485Z,14.22
2018-08-24T18:34:47.151Z,14.26
2018-08-24T18:37:15.816Z,14.32
2018-08-24T18:39:44.518Z,14.35
2018-08-24T18:42:13.201Z,14.36
2018-08-24T18:44:41.877Z,14.35
2018-08-24T18:47:10.680Z,14.34
2018-08-24T18:49:39.384Z,14.37
2018-08-24T18:52:08.115Z,14.34
2018-08-24T18:54:36.813Z,14.35
2018-08-24T18:57:05.524Z,14.35
2018-08-24T18:59:34.242Z,14.35
2018-08-24T19:02:02.979Z,14.35
2018-08-24T19:04:31.682Z,14.35
2018-08-24T19:07:00.368Z,14.36
2018-08-24T19:09:29.255Z,14.35
2018-08-24T19:12:04.157Z,14.34
2018-08-24T19:14:33.856Z,14.35
2018-08-24T19:17:02.626Z,14.35
2018-08-24T19:19:36.454Z,14.32
2018-08-24T19:22:05.562Z,14.16
2018-08-24T19:24:34.376Z,13.96
2018-08-24T19:27:03.216Z,13.80
2018-08-24T19:29:37.133Z,13.71
2018-08-24T19:32:05.963Z,13.65
2018-08-24T19:34:34.669Z,13.61
2018-08-24T19:37:03.328Z,13.60
2018-08-24T19:39:32.317Z,13.60
2018-08-24T19:42:06.032Z,13.60
2018-08-24T19:44:34.766Z,13.62
2018-08-24T19:47:03.589Z,13.66
2018-08-24T19:49:35.859Z,13.68
2018-08-24T19:52:04.702Z,13.70
2018-08-24T19:54:33.423Z,13.70
2018-08-24T19:57:07.291Z,13.72
2018-08-24T19:59:36.039Z,13.75
2018-08-24T20:02:04.714Z,13.78
2018-08-24T20:04:33.487Z,13.78
2018-08-24T20:07:07.515Z,13.79
2018-08-24T20:09:41.318Z,13.80
2018-08-24T20:12:10.906Z,13.80
2018-08-24T20:14:44.755Z,13.80
2018-08-24T20:17:32.753Z,13.80
2018-08-24T20:20:01.379Z,13.77
2018-08-24T20:22:30.103Z,13.75
2018-08-24T20:24:58.811Z,13.74
2018-08-24T20:27:27.549Z,13.70
2018-08-24T20:29:56.165Z,13.68
2018-08-24T20:32:24.835Z,13.65
2018-08-24T20:34:53.497Z,13.63
2018-08-24T20:37:22.221Z,13.61
2018-08-24T20:39:50.862Z,13.60
2018-08-24T20:42:19.510Z,13.61
2018-08-24T20:44:48.119Z,13.61
2018-08-24T20:47:16.861Z,13.60
2018-08-24T20:49:45.477Z,13.61
2018-08-24T20:52:14.118Z,13.62
2018-08-24T20:54:42.813Z,13.63
2018-08-24T20:57:11.506Z,13.62
2018-08-24T20:59:40.198Z,13.61
2018-08-24T21:02:09.256Z,13.60
2018-08-24T21:04:37.869Z,13.61
2018-08-24T21:07:06.782Z,13.60
2018-08-24T21:09:35.384Z,13.60
2018-08-24T21:12:04.047Z,13.60
2018-08-24T21:14:32.815Z,13.60
2018-08-24T21:17:01.558Z,13.61
2018-08-24T21:19:30.318Z,13.61
2018-08-24T21:21:59.002Z,13.57
2018-08-24T21:24:27.698Z,13.59
2018-08-24T21:26:56.443Z,13.57
2018-08-24T21:29:25.160Z,13.55
2018-08-24T21:31:53.839Z,13.53
2018-08-24T21:34:22.653Z,13.50
2018-08-24T21:36:51.280Z,13.47
2018-08-24T21:39:19.930Z,13.45
2018-08-24T21:41:48.578Z,13.44
2018-08-24T21:44:17.205Z,13.43
2018-08-24T21:46:45.817Z,13.42
2018-08-24T21:49:14.441Z,13.41
2018-08-24T21:51:43.062Z,13.40
2018-08-24T21:54:11.648Z,13.39
2018-08-24T21:56:40.209Z,13.36
2018-08-24T21:59:08.806Z,13.35
2018-08-24T22:01:37.488Z,13.34
2018-08-24T22:04:06.082Z,13.33
2018-08-24T22:06:34.663Z,13.32
2018-08-24T22:09:03.681Z,13.28
2018-08-24T22:11:32.409Z,13.28
2018-08-24T22:14:01.147Z,13.24
2018-08-24T22:16:29.951Z,13.23
2018-08-24T22:18:58.573Z,13.20
2018-08-24T22:21:27.204Z,13.18
2018-08-24T22:23:55.845Z,13.19
2018-08-24T22:26:24.592Z,13.17
2018-08-24T22:28:53.247Z,13.17
2018-08-24T22:31:21.947Z,13.16
2018-08-24T22:33:50.628Z,13.14
2018-08-24T22:36:19.295Z,13.12
2018-08-24T22:38:48.045Z,13.10
2018-08-24T22:41:16.702Z,13.08
2018-08-24T22:43:45.374Z,13.06
2018-08-24T22:46:13.995Z,13.04
2018-08-24T22:48:42.654Z,13.02
2018-08-24T22:51:11.343Z,13.00
2018-08-24T22:53:39.983Z,12.97
2018-08-24T22:56:08.688Z,12.95
2018-08-24T22:58:37.358Z,12.94
2018-08-24T23:01:06.270Z,12.87
2018-08-24T23:03:34.921Z,12.87
2018-08-24T23:06:03.569Z,12.86
2018-08-24T23:08:32.211Z,12.84
2018-08-24T23:11:01.056Z,12.84
2018-08-24T23:13:29.747Z,12.85
2018-08-24T23:15:58.353Z,12.85
2018-08-24T23:18:27.076Z,12.86
2018-08-24T23:20:55.790Z,12.88
2018-08-24T23:23:24.448Z,12.89
2018-08-24T23:25:53.098Z,12.89
2018-08-24T23:28:21.761Z,12.89
2018-08-24T23:30:50.389Z,12.89
2018-08-24T23:33:19.258Z,12.88
2018-08-24T23:35:47.921Z,12.86
2018-08-24T23:38:16.650Z,12.87
2018-08-24T23:40:45.371Z,12.87
2018-08-24T23:43:14.064Z,12.87
2018-08-24T23:45:42.731Z,12.87
2018-08-24T23:48:11.330Z,12.87
2018-08-24T23:50:39.942Z,12.87
2018-08-24T23:53:08.596Z,12.88
2018-08-24T23:55:37.262Z,12.89
2018-08-24T23:58:06.175Z,12.91
